Time;durP1;ratioP1;P1;durP2;ratioP2;P2;SDS_P1;SDS_P2;PMS_P1;PMS_P2;Temp;Humidity;BMP_temperature;BMP_pressure;BME280_temperature;BME280_humidity;BME280_pressure;Samples;Min_cycle;Max_cycle;Signal;HPM_P1;HPM_P2
2023/06/10 00:00:50;;;;;;;13.87;10.33;;;;;;;-141.97;86.27;47613.25;5034994;28;20166;-77
2023/06/10 00:03:16;;;;;;;13.73;10.10;;;;;;;-141.97;87.05;47594.03;5031825;28;20173;-79
2023/06/10 00:05:41;;;;;;;14.67;10.43;;;;;;;-141.97;87.32;47576.75;5032064;28;20170;-79
2023/06/10 00:08:07;;;;;;;13.23;9.70;;;;;;;-141.97;86.80;47567.13;5031114;28;20163;-79
2023/06/10 00:10:37;;;;;;;12.97;9.93;;;;;;;-141.97;87.41;47553.69;5031693;28;20260;-80
2023/06/10 00:13:09;;;;;;;12.93;9.80;;;;;;;-141.97;87.09;47569.06;5031505;28;20158;-81
2023/06/10 00:15:35;;;;;;;13.67;10.47;;;;;;;-141.97;87.06;47559.44;5030232;28;20166;-81
2023/06/10 00:18:03;;;;;;;14.87;10.07;;;;;;;-141.97;87.15;47734.34;5031500;28;20190;-79
2023/06/10 00:20:30;;;;;;;13.83;10.00;;;;;;;-141.97;87.53;47578.66;5031498;28;20162;-80
2023/06/10 00:22:56;;;;;;;13.50;9.77;;;;;;;-141.97;87.32;47544.06;5032422;28;20162;-79
2023/06/10 00:25:22;;;;;;;13.17;10.20;;;;;;;-141.97;87.05;47511.38;5032451;28;20701;-80
2023/06/10 00:27:47;;;;;;;12.80;9.80;;;;;;;-141.97;86.66;47561.38;5035206;28;20168;-79
2023/06/10 00:30:13;;;;;;;11.83;9.60;;;;;;;-141.97;85.59;47546.00;5031716;28;20193;-79
2023/06/10 00:32:39;;;;;;;13.93;9.90;;;;;;;-141.97;86.14;47567.13;5031709;28;20166;-77
2023/06/10 00:35:05;;;;;;;16.03;9.57;;;;;;;-141.97;86.83;47547.91;5031499;28;20169;-80
2023/06/10 00:37:31;;;;;;;14.70;9.90;;;;;;;-141.97;87.04;47557.53;5031962;28;20257;-79
2023/06/10 00:39:57;;;;;;;14.80;9.90;;;;;;;-141.97;86.97;47565.22;5031593;28;20205;-79
2023/06/10 00:42:24;;;;;;;12.77;9.67;;;;;;;-141.97;86.85;47578.66;5032007;28;20201;-79
2023/06/10 00:44:50;;;;;;;13.27;9.63;;;;;;;-141.97;86.33;47580.59;5031688;28;20250;-79
2023/06/10 00:47:16;;;;;;;12.27;9.20;;;;;;;-141.97;85.59;47547.91;5031416;28;20226;-79
2023/06/10 00:49:41;;;;;;;14.00;9.53;;;;;;;-141.97;86.00;47561.38;5031904;28;20158;-79
2023/06/10 00:52:08;;;;;;;13.37;10.10;;;;;;;-141.97;85.61;47572.91;5031593;28;20535;-79
2023/06/10 00:54:33;;;;;;;12.77;9.60;;;;;;;-141.97;85.96;47595.97;5031527;28;20162;-78
2023/06/10 00:57:01;;;;;;;14.57;9.87;;;;;;;-141.97;86.46;47546.00;5031507;28;20186;-78
2023/06/10 00:59:28;;;;;;;14.17;9.67;;;;;;;-141.97;86.58;47561.38;5031818;28;20162;-78
2023/06/10 01:01:55;;;;;;;12.27;9.53;;;;;;;-141.97;85.86;47599.81;5031337;28;20655;-79
2023/06/10 01:04:21;;;;;;;13.47;9.20;;;;;;;-141.97;84.53;47549.84;5031598;28;20200;-79
2023/06/10 01:07:26;;;;;;;11.70;8.83;;;;;;;-141.97;84.29;47551.75;5031794;28;20561;-79
2023/06/10 01:09:59;;;;;;;12.97;9.60;;;;;;;-141.97;85.88;47496.00;5031767;28;20630;-78
2023/06/10 01:12:40;;;;;;;12.60;9.53;;;;;;;-141.97;86.11;47576.75;5031828;28;20236;-78
2023/06/10 01:15:06;;;;;;;13.73;10.17;;;;;;;-141.97;87.57;47572.91;5031649;28;20177;-80
2023/06/10 01:17:31;;;;;;;14.30;10.23;;;;;;;-141.97;87.49;47570.97;5030160;28;20335;-80
2023/06/10 01:19:57;;;;;;;13.53;9.60;;;;;;;-141.97;86.60;47534.44;5033899;28;20155;-78
2023/06/10 01:22:25;;;;;;;13.63;9.27;;;;;;;-141.97;85.46;47551.75;5034806;28;20637;-78
2023/06/10 01:24:51;;;;;;;11.20;9.23;;;;;;;-141.97;84.68;47509.47;5035025;28;20227;-79
2023/06/10 01:27:19;;;;;;;13.70;9.20;;;;;;;-141.97;83.45;47544.06;5035041;28;20574;-79
2023/06/10 01:29:59;;;;;;;11.80;8.80;;;;;;;-141.97;82.79;47555.59;5035182;28;20173;-79
2023/06/10 01:32:34;;;;;;;11.80;9.30;;;;;;;-141.97;81.85;47538.28;5035277;28;20158;-80
2023/06/10 01:35:02;;;;;;;12.80;9.00;;;;;;;-141.97;81.62;47586.34;5034970;28;20257;-80
2023/06/10 01:37:27;;;;;;;11.77;9.40;;;;;;;-141.97;82.61;47561.38;5034971;28;20581;-80
2023/06/10 01:39:58;;;;;;;12.50;9.43;;;;;;;-141.97;84.15;47542.16;5035147;28;20253;-80
2023/06/10 01:42:24;;;;;;;13.67;9.00;;;;;;;-141.97;83.77;47561.38;5035229;28;20197;-80
2023/06/10 01:44:50;;;;;;;12.40;9.50;;;;;;;-141.97;84.52;47584.44;5035108;28;20170;-81
2023/06/10 01:47:15;;;;;;;13.03;9.97;;;;;;;-141.97;84.41;47663.22;5033924;28;20221;-81
2023/06/10 01:49:41;;;;;;;14.63;8.87;;;;;;;-141.97;84.40;47536.38;5034896;28;20624;-79
2023/06/10 01:52:06;;;;;;;12.83;9.47;;;;;;;-141.97;84.35;47595.97;5034732;28;20172;-80
2023/06/10 01:54:34;;;;;;;10.73;8.97;;;;;;;-141.97;84.50;47599.81;5033556;28;20174;-80
2023/06/10 01:57:00;;;;;;;13.90;9.83;;;;;;;-141.97;85.16;47594.03;5034605;28;20179;-80
2023/06/10 01:59:26;;;;;;;12.83;9.90;;;;;;;-141.97;85.41;47569.06;5034388;28;20188;-79
2023/06/10 02:01:51;;;;;;;12.53;9.37;;;;;;;-141.97;85.56;47578.66;5033415;28;20638;-78
2023/06/10 02:04:17;;;;;;;15.90;9.47;;;;;;;-141.97;84.74;47580.59;5033838;28;20645;-79
2023/06/10 02:06:42;;;;;;;14.07;9.23;;;;;;;-141.97;84.30;47553.69;5033793;28;20162;-79
2023/06/10 02:09:07;;;;;;;13.57;9.77;;;;;;;-141.97;83.94;47595.97;5033550;28;20184;-79
2023/06/10 02:11:33;;;;;;;13.77;9.03;;;;;;;-141.97;83.29;47570.97;5033434;28;20177;-78
2023/06/10 02:13:58;;;;;;;13.10;8.90;;;;;;;-141.97;83.11;47584.44;5033320;28;20201;-79
2023/06/10 02:16:24;;;;;;;13.13;9.17;;;;;;;-141.97;82.90;47603.66;5033734;28;20185;-79
2023/06/10 02:18:49;;;;;;;13.30;9.53;;;;;;;-141.97;83.09;47515.22;5031764;28;20252;-79
2023/06/10 02:21:15;;;;;;;12.20;8.97;;;;;;;-141.97;83.36;47599.81;5040330;28;20614;-78
2023/06/10 02:23:40;;;;;;;16.47;10.00;;;;;;;-141.97;83.48;47611.34;5033258;28;20235;-79
2023/06/10 02:26:05;;;;;;;13.87;9.17;;;;;;;-141.97;83.51;47676.69;5033071;28;20174;-77
2023/06/10 02:28:31;;;;;;;13.90;9.43;;;;;;;-141.97;83.11;47617.09;5033593;28;20715;-79
2023/06/10 02:30:56;;;;;;;13.30;9.50;;;;;;;-141.97;82.93;47526.75;5030243;28;20174;-78
2023/06/10 02:33:23;;;;;;;14.00;9.40;;;;;;;-141.97;82.44;47565.22;5033191;28;20238;-79
2023/06/10 02:35:48;;;;;;;13.80;9.53;;;;;;;-141.97;82.29;47599.81;5033191;28;20245;-78
2023/06/10 02:38:14;;;;;;;13.47;9.57;;;;;;;-141.97;81.54;47597.88;5032958;28;20192;-79
2023/06/10 02:40:39;;;;;;;11.90;9.40;;;;;;;-141.97;81.51;47634.41;5032907;28;20639;-80
2023/06/10 02:43:04;;;;;;;13.13;9.10;;;;;;;-141.97;81.00;47565.22;5032734;28;20197;-78
2023/06/10 02:45:30;;;;;;;13.13;8.73;;;;;;;-141.97;80.71;47611.34;5032607;28;20166;-78
2023/06/10 02:47:55;;;;;;;12.23;9.07;;;;;;;-141.97;80.24;47578.66;5031863;28;20232;-77
2023/06/10 02:50:21;;;;;;;11.80;9.23;;;;;;;-141.97;80.04;47505.63;5032969;28;20657;-79
2023/06/10 02:52:47;;;;;;;11.90;9.20;;;;;;;-141.97;80.04;47613.25;5032666;28;20167;-79
2023/06/10 02:55:12;;;;;;;12.60;9.07;;;;;;;-141.97;79.66;47534.44;5032912;28;20170;-79
2023/06/10 02:57:37;;;;;;;12.93;9.60;;;;;;;-141.97;79.66;47576.75;5019461;28;20552;-78
2023/06/10 03:00:09;;;;;;;10.80;8.97;;;;;;;-141.97;79.57;47609.41;5013195;28;20209;-79
2023/06/10 03:02:36;;;;;;;12.20;9.10;;;;;;;-141.97;79.49;47538.28;5013020;28;20254;-80
2023/06/10 03:05:02;;;;;;;11.57;9.33;;;;;;;-141.97;79.20;47599.81;5013231;28;20242;-80
2023/06/10 03:07:27;;;;;;;10.47;8.70;;;;;;;-141.97;78.60;47580.59;5013757;28;20554;-79
2023/06/10 03:09:53;;;;;;;10.33;8.80;;;;;;;-141.97;78.39;47717.06;5013053;28;20158;-78
2023/06/10 03:12:18;;;;;;;12.07;8.93;;;;;;;-141.97;78.16;47718.97;5013512;28;20175;-79
2023/06/10 03:14:44;;;;;;;12.73;8.50;;;;;;;-141.97;78.13;47572.91;5012514;28;20257;-79
2023/06/10 03:17:09;;;;;;;11.00;9.23;;;;;;;-141.97;77.88;47609.41;5013097;28;20675;-77
2023/06/10 03:19:35;;;;;;;10.47;8.40;;;;;;;-141.97;78.10;47578.66;5013298;28;20192;-78
2023/06/10 03:22:16;;;;;;;15.30;8.90;;;;;;;-141.97;78.19;47580.59;5013334;28;20234;-78
2023/06/10 03:24:43;;;;;;;15.67;9.33;;;;;;;-141.97;77.71;47565.22;5012868;28;20711;-78
2023/06/10 03:27:10;;;;;;;11.30;9.20;;;;;;;-141.97;77.88;47590.19;5013202;28;20151;-79
2023/06/10 03:29:37;;;;;;;15.90;9.37;;;;;;;-141.97;77.16;47572.91;5012960;28;20225;-79
2023/06/10 03:32:03;;;;;;;11.33;9.30;;;;;;;-141.97;76.83;47565.22;5012759;28;20190;-79
2023/06/10 03:34:29;;;;;;;16.20;10.07;;;;;;;-141.97;76.48;47557.53;5012600;28;20201;-79
2023/06/10 03:36:55;;;;;;;17.27;9.80;;;;;;;-141.97;75.83;47609.41;5012806;28;20536;-80
2023/06/10 03:39:21;;;;;;;16.20;9.70;;;;;;;-141.97;75.58;47595.97;5012944;28;20238;-79
2023/06/10 03:41:46;;;;;;;16.33;9.80;;;;;;;-141.97;75.40;47555.59;5012008;28;20167;-79
2023/06/10 03:44:11;;;;;;;18.10;9.00;;;;;;;-141.97;74.52;47578.66;5012982;28;20213;-79
2023/06/10 03:46:37;;;;;;;13.13;9.40;;;;;;;-141.97;73.88;47505.63;5012460;28;20301;-79
2023/06/10 03:49:03;;;;;;;15.83;9.80;;;;;;;-141.97;74.02;47542.16;5012474;28;20608;-79
2023/06/10 03:51:29;;;;;;;13.27;9.40;;;;;;;-141.97;74.41;47547.91;5012553;28;20193;-80
2023/06/10 03:53:55;;;;;;;13.40;9.57;;;;;;;-141.97;74.68;47538.28;5012397;28;20178;-80
2023/06/10 03:56:20;;;;;;;14.87;9.13;;;;;;;-141.97;74.29;47542.16;5023683;28;20194;-80
2023/06/10 03:58:46;;;;;;;15.07;9.03;;;;;;;-141.97;74.03;47607.50;5031870;28;20585;-80
2023/06/10 04:01:13;;;;;;;11.60;9.43;;;;;;;-141.97;74.15;47561.38;5032339;28;20166;-80
2023/06/10 04:03:39;;;;;;;12.90;9.03;;;;;;;-141.97;74.66;47565.22;5032261;28;20158;-79
2023/06/10 04:06:05;;;;;;;16.10;9.10;;;;;;;-141.97;74.58;47692.06;5032063;28;20158;-79
2023/06/10 04:08:31;;;;;;;12.37;8.97;;;;;;;-141.97;74.41;47561.38;5032195;28;20166;-78
2023/06/10 04:10:57;;;;;;;11.80;9.13;;;;;;;-141.97;74.40;47530.59;5032078;28;20244;-79
2023/06/10 04:13:23;;;;;;;13.20;9.10;;;;;;;-141.97;74.37;47601.72;5031984;28;20169;-79
2023/06/10 04:15:48;;;;;;;11.47;9.10;;;;;;;-141.97;73.70;47549.84;5032096;28;20166;-77
2023/06/10 04:18:13;;;;;;;15.17;9.20;;;;;;;-141.97;73.30;47582.50;5031293;28;20273;-78
2023/06/10 04:20:39;;;;;;;13.77;9.40;;;;;;;-141.97;73.50;47586.34;5031881;28;20544;-79
2023/06/10 04:23:04;;;;;;;13.17;9.03;;;;;;;-141.97;73.48;47572.91;5031508;28;20224;-78
2023/06/10 04:25:30;;;;;;;11.83;9.13;;;;;;;-141.97;73.17;47540.22;5031610;28;20220;-79
2023/06/10 04:27:55;;;;;;;11.97;8.73;;;;;;;-141.97;72.59;47569.06;5031875;28;20482;-78
2023/06/10 04:30:21;;;;;;;11.23;9.10;;;;;;;-141.97;72.44;47557.53;5031527;28;20166;-79
2023/06/10 04:32:47;;;;;;;11.57;9.17;;;;;;;-141.97;72.16;47580.59;5031545;28;20638;-79
2023/06/10 04:35:13;;;;;;;17.50;9.03;;;;;;;-141.97;71.88;47496.00;5031372;28;20181;-78
2023/06/10 04:37:39;;;;;;;12.43;9.37;;;;;;;-141.97;71.74;47743.97;5031336;28;20186;-79
2023/06/10 04:40:06;;;;;;;15.10;9.57;;;;;;;-141.97;71.20;47584.44;5031772;28;20210;-77
2023/06/10 04:42:31;;;;;;;13.23;9.43;;;;;;;-141.97;70.16;47570.97;5030401;28;20616;-79
2023/06/10 04:44:57;;;;;;;12.80;9.40;;;;;;;-141.97;70.15;47582.50;5031255;28;20173;-79
2023/06/10 04:47:22;;;;;;;15.60;9.53;;;;;;;-141.97;70.53;47546.00;5031266;28;20229;-79
2023/06/10 04:49:48;;;;;;;13.23;9.00;;;;;;;-141.97;70.15;47557.53;5031592;28;20186;-80
2023/06/10 04:52:13;;;;;;;17.10;9.83;;;;;;;-141.97;69.91;47576.75;5032094;28;20263;-79
2023/06/10 04:54:39;;;;;;;12.10;9.20;;;;;;;-141.97;69.14;47457.56;5033886;28;20190;-79
2023/06/10 04:57:07;;;;;;;15.07;9.50;;;;;;;-141.97;68.85;47567.13;5035528;28;20190;-80
2023/06/10 04:59:33;;;;;;;16.77;9.47;;;;;;;-141.97;68.17;47555.59;5035736;28;20158;-80
2023/06/10 05:01:58;;;;;;;12.80;9.43;;;;;;;-141.97;67.68;47574.81;5035190;28;20706;-79
2023/06/10 05:04:24;;;;;;;16.47;9.23;;;;;;;-141.97;66.78;47553.69;5035196;28;20170;-79
2023/06/10 05:06:49;;;;;;;14.97;9.60;;;;;;;-141.97;68.01;47540.22;5050298;28;20174;-77
2023/06/10 05:09:15;;;;;;;13.67;10.30;;;;;;;-141.97;70.20;47699.75;5049455;28;20181;-79
2023/06/10 05:11:40;;;;;;;17.60;10.27;;;;;;;-141.97;70.23;47559.44;5034300;28;20178;-79
2023/06/10 05:14:06;;;;;;;13.77;10.10;;;;;;;-141.97;70.07;47499.84;5034806;28;20185;-80
2023/06/10 05:16:31;;;;;;;14.07;10.37;;;;;;;-141.97;69.58;47557.53;5035220;28;20208;-80
2023/06/10 05:18:57;;;;;;;14.40;9.63;;;;;;;-141.97;68.68;47546.00;5033623;28;20239;-81
2023/06/10 05:21:22;;;;;;;16.10;11.20;;;;;;;-141.97;68.06;47549.84;5035715;28;20158;-79
2023/06/10 05:23:48;;;;;;;14.43;10.20;;;;;;;-141.97;65.21;47555.59;5035763;28;20178;-81
2023/06/10 05:26:14;;;;;;;12.17;10.07;;;;;;;-141.97;65.10;47563.28;5035635;28;20166;-82
2023/06/10 05:28:39;;;;;;;12.33;9.40;;;;;;;-141.97;64.60;47509.47;5035835;28;20154;-81
2023/06/10 05:31:04;;;;;;;13.67;9.53;;;;;;;-141.97;64.86;47761.25;5034360;28;20178;-80
2023/06/10 05:33:30;;;;;;;12.00;9.17;;;;;;;-141.97;63.88;47546.00;5034890;28;20166;-79
2023/06/10 05:35:55;;;;;;;13.80;9.40;;;;;;;-141.97;64.08;47524.84;5034934;28;20177;-82
2023/06/10 05:38:21;;;;;;;13.27;9.40;;;;;;;-141.97;63.98;47521.00;5035251;28;20673;-81
2023/06/10 05:40:46;;;;;;;17.80;9.53;;;;;;;-141.97;63.45;47553.69;5035191;28;20596;-81
2023/06/10 05:43:11;;;;;;;12.93;9.83;;;;;;;-141.97;64.04;47578.66;5035281;28;20170;-81
2023/06/10 05:45:37;;;;;;;13.13;9.57;;;;;;;-141.97;64.13;47530.59;5035258;28;20185;-81
2023/06/10 05:48:03;;;;;;;14.37;9.10;;;;;;;-141.97;65.89;47542.16;5035097;28;20274;-80
2023/06/10 05:50:28;;;;;;;14.47;9.00;;;;;;;-141.97;65.52;47565.22;5035168;28;20220;-81
2023/06/10 05:52:54;;;;;;;13.67;9.23;;;;;;;-141.97;66.30;47546.00;5035168;28;20686;-82
2023/06/10 05:55:20;;;;;;;13.77;9.60;;;;;;;-141.97;66.88;47580.59;5034565;28;20166;-82
2023/06/10 05:57:46;;;;;;;17.73;9.73;;;;;;;-141.97;67.81;47576.75;5035062;28;20194;-79
2023/06/10 06:00:12;;;;;;;14.90;10.47;;;;;;;-141.97;68.39;47471.03;5034554;28;20174;-81
2023/06/10 06:02:37;;;;;;;16.80;10.97;;;;;;;-141.97;68.20;47536.38;5034810;28;20177;-81
2023/06/10 06:05:03;;;;;;;15.87;10.90;;;;;;;-141.97;67.72;47559.44;5034012;28;20603;-83
2023/06/10 06:07:29;;;;;;;15.13;10.50;;;;;;;-141.97;67.09;47482.56;5034143;28;20185;-82
2023/06/10 06:09:55;;;;;;;12.97;10.23;;;;;;;-141.97;68.10;47572.91;5032925;28;20174;-81
2023/06/10 06:12:20;;;;;;;15.40;10.73;;;;;;;-141.97;68.59;47451.81;5034737;28;20802;-80
2023/06/10 06:14:46;;;;;;;16.93;10.87;;;;;;;-141.97;68.30;47530.59;5034750;28;20683;-81
2023/06/10 06:17:11;;;;;;;17.03;10.70;;;;;;;-141.97;66.35;47597.88;5033269;28;20219;-81
2023/06/10 06:19:36;;;;;;;14.37;10.87;;;;;;;-141.97;66.62;47588.28;5037019;28;20697;-80
2023/06/10 06:22:02;;;;;;;18.43;11.50;;;;;;;-141.97;68.13;47672.84;5032375;28;20185;-79
2023/06/10 06:24:27;;;;;;;17.77;11.80;;;;;;;-141.97;69.16;47476.78;5033680;28;20179;-81
2023/06/10 06:26:53;;;;;;;13.70;11.17;;;;;;;-141.97;68.38;47484.47;5034182;28;20162;-80
2023/06/10 06:29:18;;;;;;;18.37;11.83;;;;;;;-141.97;67.15;47620.94;5034077;28;20646;-80
2023/06/10 06:31:43;;;;;;;17.03;11.47;;;;;;;-141.97;65.43;47434.50;5034353;28;20204;-81
2023/06/10 06:34:09;;;;;;;18.73;11.90;;;;;;;-141.97;65.02;47538.28;5033946;28;20170;-80
2023/06/10 06:36:34;;;;;;;17.37;11.90;;;;;;;-141.97;64.25;47503.69;5033890;28;20279;-80
2023/06/10 06:39:00;;;;;;;14.67;12.00;;;;;;;-141.97;64.37;47549.84;5034211;28;20177;-80
2023/06/10 06:41:28;;;;;;;17.53;12.23;;;;;;;-141.97;63.21;47507.53;5034169;28;20179;-80
2023/06/10 06:43:54;;;;;;;13.87;10.73;;;;;;;-141.97;61.96;47480.63;5033991;28;20237;-81
2023/06/10 06:46:21;;;;;;;17.83;11.53;;;;;;;-141.97;60.92;47565.22;5033769;28;20303;-80
2023/06/10 06:48:46;;;;;;;14.93;10.73;;;;;;;-141.97;59.90;47394.16;5033612;28;20253;-80
2023/06/10 06:51:12;;;;;;;16.60;10.03;;;;;;;-141.97;58.83;47565.22;5033455;28;20193;-80
2023/06/10 06:53:42;;;;;;;14.07;10.77;;;;;;;-141.97;57.65;47442.19;5033639;28;20237;-80
2023/06/10 06:56:07;;;;;;;14.30;9.97;;;;;;;-141.97;57.34;47530.59;5033759;28;20158;-80
2023/06/10 06:58:33;;;;;;;11.53;10.03;;;;;;;-141.97;57.17;47513.31;5033607;28;20625;-80
2023/06/10 07:00:58;;;;;;;12.90;10.23;;;;;;;-141.97;56.51;47494.09;5033405;28;20225;-80
2023/06/10 07:03:24;;;;;;;14.03;10.00;;;;;;;-141.97;54.86;47488.31;5032691;28;20245;-81
2023/06/10 07:05:49;;;;;;;16.50;10.03;;;;;;;-141.97;54.44;47496.00;5033861;28;20562;-81
2023/06/10 07:08:14;;;;;;;17.30;9.30;;;;;;;-141.97;55.70;47442.19;5033384;28;20158;-80
2023/06/10 07:10:40;;;;;;;15.33;9.70;;;;;;;-141.97;56.30;47534.44;5034214;28;20162;-80
2023/06/10 07:13:05;;;;;;;13.50;9.88;;;;;;;-141.97;55.68;47472.94;5034692;28;20213;-80
2023/06/10 07:15:32;;;;;;;15.87;10.53;;;;;;;-141.97;57.63;47507.53;5033424;28;20202;-79
2023/06/10 07:17:57;;;;;;;12.07;9.43;;;;;;;-141.97;57.45;47538.28;5031970;28;20210;-79
2023/06/10 07:20:23;;;;;;;14.30;9.50;;;;;;;-141.97;57.80;47534.44;5033064;28;20705;-80
2023/06/10 07:22:48;;;;;;;14.93;10.40;;;;;;;-141.97;57.05;47511.38;5048406;28;20166;-79
2023/06/10 07:25:15;;;;;;;14.53;9.90;;;;;;;-141.97;56.94;47542.16;5033228;28;20248;-81
2023/06/10 07:27:41;;;;;;;14.40;10.30;;;;;;;-141.97;57.38;47557.53;5033102;28;20154;-82
2023/06/10 07:30:08;;;;;;;14.83;9.67;;;;;;;-141.97;57.73;47530.59;5024475;28;20201;-81
2023/06/10 07:32:34;;;;;;;13.87;10.30;;;;;;;-141.97;57.26;47530.59;5013163;28;20158;-80
2023/06/10 07:34:59;;;;;;;12.53;9.10;;;;;;;-141.97;55.20;47572.91;5013166;28;20237;-80
2023/06/10 07:37:25;;;;;;;13.87;8.80;;;;;;;-141.97;54.72;47472.94;5012742;28;20191;-81
2023/06/10 07:39:50;;;;;;;11.37;8.87;;;;;;;-141.97;54.74;47653.63;5027611;28;20692;-82
2023/06/10 07:42:15;;;;;;;13.33;9.57;;;;;;;-141.97;53.52;47430.66;5013460;28;20198;-79
2023/06/10 07:44:41;;;;;;;11.60;8.53;;;;;;;-141.97;54.05;47513.31;5013537;28;20174;-80
2023/06/10 07:47:06;;;;;;;14.37;9.17;;;;;;;-141.97;53.82;47505.63;5014391;28;20737;-81
2023/06/10 07:49:32;;;;;;;10.90;7.83;;;;;;;-141.97;51.85;47499.84;5014347;28;20175;-80
2023/06/10 07:51:57;;;;;;;18.65;9.85;;;;;;;-141.97;50.89;47499.84;5014521;28;20164;-80
2023/06/10 07:54:23;;;;;;;11.95;8.75;;;;;;;-141.97;50.87;47480.63;5012598;28;20191;-80
2023/06/10 07:56:48;;;;;;;12.63;7.88;;;;;;;-141.97;50.92;47595.97;5013913;28;20193;-81
2023/06/10 07:59:16;;;;;;;8.65;7.63;;;;;;;-141.97;51.07;47488.31;5012713;28;20255;-81
2023/06/10 08:01:42;;;;;;;10.07;7.40;;;;;;;-141.97;49.23;47474.88;5015273;28;20164;-80
2023/06/10 08:04:08;;;;;;;13.35;8.20;;;;;;;-141.97;49.80;47449.88;5015372;28;20619;-82
2023/06/10 08:06:33;;;;;;;11.25;8.40;;;;;;;-141.97;51.07;47469.09;5016306;28;20170;-80
2023/06/10 08:08:59;;;;;;;10.10;8.38;;;;;;;-141.97;50.56;47457.56;5013964;28;20254;-79
2023/06/10 08:11:28;;;;;;;13.80;9.43;;;;;;;-141.97;48.78;47440.28;5014622;28;20171;-80
2023/06/10 08:13:53;;;;;;;9.80;8.18;;;;;;;-141.97;49.29;47403.75;5013884;28;20171;-80
2023/06/10 08:16:19;;;;;;;11.07;7.70;;;;;;;-141.97;47.97;47480.63;5013648;28;20167;-80
2023/06/10 08:18:44;;;;;;;9.73;7.20;;;;;;;-141.97;46.91;47624.78;5029313;28;20180;-81
2023/06/10 08:21:10;;;;;;;8.93;6.57;;;;;;;-141.97;44.74;47459.50;5013965;28;20177;-80
2023/06/10 08:23:35;;;;;;;9.30;6.75;;;;;;;-141.97;44.17;47330.72;5013692;28;20273;-81
2023/06/10 08:26:00;;;;;;;13.50;7.97;;;;;;;-141.97;44.48;47363.41;5028948;28;20665;-81
2023/06/10 08:28:26;;;;;;;14.50;7.50;;;;;;;-141.97;44.91;47638.25;5014008;28;20254;-82
2023/06/10 08:30:51;;;;;;;9.90;7.28;;;;;;;-141.97;44.02;47428.75;5013980;28;20658;-81
2023/06/10 08:33:17;;;;;;;8.68;6.82;;;;;;;-141.97;43.45;47371.09;5012684;28;20162;-80
2023/06/10 08:35:42;;;;;;;10.18;7.00;;;;;;;-141.97;42.74;47434.50;5013482;28;20487;-80
2023/06/10 08:38:07;;;;;;;12.27;8.50;;;;;;;-141.97;42.81;47459.50;5013388;28;20198;-81
2023/06/10 08:40:33;;;;;;;9.90;6.85;;;;;;;-141.97;41.23;47426.81;5013473;28;20262;-80
2023/06/10 08:43:05;;;;;;;8.95;7.13;;;;;;;-141.97;41.44;47403.75;5013431;28;20166;-80
2023/06/10 08:45:35;;;;;;;9.45;6.75;;;;;;;-141.97;41.13;47426.81;5013050;28;20164;-81
2023/06/10 08:48:04;;;;;;;7.70;6.80;;;;;;;-141.97;40.41;47369.16;5012453;28;20189;-80
2023/06/10 08:50:30;;;;;;;10.48;6.90;;;;;;;-141.97;39.72;47223.09;5013574;28;20166;-82
2023/06/10 08:52:58;;;;;;;8.98;6.30;;;;;;;-141.97;39.27;47403.75;5013455;28;20197;-80
2023/06/10 08:55:31;;;;;;;9.73;7.05;;;;;;;-141.97;40.28;47403.75;5013422;28;20168;-81
2023/06/10 08:57:59;;;;;;;7.68;6.53;;;;;;;-141.97;39.74;47376.84;5013525;28;20906;-79
2023/06/10 09:00:26;;;;;;;8.95;7.10;;;;;;;-141.97;40.17;47403.75;5014176;28;20165;-81
2023/06/10 09:02:52;;;;;;;12.55;7.63;;;;;;;-141.97;40.81;47392.22;5012908;28;20170;-82
2023/06/10 09:05:17;;;;;;;11.32;7.22;;;;;;;-141.97;40.36;47415.28;5011267;28;20193;-80
2023/06/10 09:07:44;;;;;;;9.70;6.40;;;;;;;-141.97;40.11;47384.53;5011839;28;20607;-81
2023/06/10 09:10:11;;;;;;;9.43;6.90;;;;;;;-141.97;41.18;47415.28;5024654;28;20565;-81
2023/06/10 09:12:37;;;;;;;8.68;7.53;;;;;;;-141.97;42.55;47419.13;5032117;28;20173;-81
2023/06/10 09:15:04;;;;;;;8.55;7.15;;;;;;;-141.97;43.44;47357.63;5032471;28;20523;-81
2023/06/10 09:17:29;;;;;;;8.27;7.03;;;;;;;-141.97;44.04;47422.97;5032521;28;20218;-80
2023/06/10 09:19:56;;;;;;;8.20;6.82;;;;;;;-141.97;43.83;47447.97;5031402;28;20275;-81
2023/06/10 09:22:23;;;;;;;8.95;6.95;;;;;;;-141.97;42.48;47432.59;5032192;28;20161;-80
2023/06/10 09:24:48;;;;;;;11.95;6.95;;;;;;;-141.97;41.46;47653.63;5032289;28;20158;-80
2023/06/10 09:27:14;;;;;;;9.40;7.22;;;;;;;-141.97;41.96;47634.41;5032235;28;20169;-81
2023/06/10 09:29:48;;;;;;;8.57;7.03;;;;;;;-141.97;43.04;47417.22;5031926;28;20241;-81
2023/06/10 09:32:14;;;;;;;10.55;7.18;;;;;;;-141.97;43.41;47730.50;5033050;28;20173;-81
2023/06/10 09:34:40;;;;;;;14.68;7.47;;;;;;;-141.97;43.11;47478.72;5035551;28;20248;-80
2023/06/10 09:37:06;;;;;;;10.50;6.93;;;;;;;-141.97;44.28;47415.28;5034044;28;20221;-77
2023/06/10 09:39:32;;;;;;;17.45;7.63;;;;;;;-141.97;45.10;47417.22;5034160;28;20180;-81
2023/06/10 09:41:57;;;;;;;13.57;6.35;;;;;;;-141.97;45.36;47438.34;5038047;28;20168;-80
2023/06/10 09:44:24;;;;;;;9.93;6.13;;;;;;;-141.97;45.90;47461.41;5040329;28;20598;-82
2023/06/10 09:46:54;;;;;;;9.95;5.63;;;;;;;-141.97;46.16;47745.88;5038069;28;20223;-82
2023/06/10 09:49:20;;;;;;;9.90;5.93;;;;;;;-141.97;46.01;47451.81;5036668;28;20196;-81
2023/06/10 09:51:53;;;;;;;12.90;6.75;;;;;;;-141.97;46.48;47661.31;5035342;28;20689;-81
2023/06/10 09:54:19;;;;;;;7.50;5.72;;;;;;;-141.97;45.59;47446.03;5035693;28;20162;-79
2023/06/10 09:56:49;;;;;;;7.75;5.85;;;;;;;-141.97;44.97;47465.25;5035269;28;20195;-81
2023/06/10 09:59:15;;;;;;;11.68;6.88;;;;;;;-141.97;43.96;47442.19;5035543;28;20173;-81
2023/06/10 10:01:41;;;;;;;9.80;6.32;;;;;;;-141.97;43.58;47488.31;5030626;28;20185;-80
2023/06/10 10:04:06;;;;;;;10.27;6.28;;;;;;;-141.97;43.55;47453.72;5015003;28;20173;-81
2023/06/10 10:06:32;;;;;;;10.82;6.28;;;;;;;-141.97;43.33;47405.69;5015174;28;20168;-80
2023/06/10 10:08:57;;;;;;;7.50;6.03;;;;;;;-141.97;42.78;47394.16;5014831;28;20166;-80
2023/06/10 10:11:23;;;;;;;7.57;6.53;;;;;;;-141.97;42.79;47444.13;5014661;28;20243;-81
2023/06/10 10:13:51;;;;;;;8.40;6.45;;;;;;;-141.97;41.77;47419.13;5015593;28;20175;-81
2023/06/10 10:16:19;;;;;;;9.10;6.43;;;;;;;-141.97;41.27;47388.38;5015452;28;20192;-82
2023/06/10 10:18:55;;;;;;;8.18;6.00;;;;;;;-141.97;39.84;47578.66;5015729;28;20240;-82
2023/06/10 10:21:25;;;;;;;9.25;6.32;;;;;;;-141.97;39.86;47401.84;5027041;28;20623;-82
2023/06/10 10:23:56;;;;;;;9.90;6.25;;;;;;;-141.97;40.32;47432.59;5035140;28;20161;-83
2023/06/10 10:26:22;;;;;;;8.82;6.40;;;;;;;-141.97;40.40;47659.38;5035111;28;20180;-81
2023/06/10 10:29:05;;;;;;;8.80;6.55;;;;;;;-141.97;40.73;47319.19;5033842;28;20177;-81
2023/06/10 10:31:34;;;;;;;10.77;6.88;;;;;;;-141.97;41.11;47373.00;5034675;28;20590;-81
2023/06/10 10:34:22;;;;;;;9.77;6.78;;;;;;;-141.97;40.92;47419.13;5034326;28;20169;-81
2023/06/10 10:36:49;;;;;;;7.72;6.28;;;;;;;-141.97;40.79;47309.59;5000535;28;20233;-80
2023/06/10 10:39:15;;;;;;;13.65;6.70;;;;;;;-141.97;39.66;47426.81;5016044;28;20192;-80
2023/06/10 10:41:41;;;;;;;7.47;6.43;;;;;;;-141.97;39.39;47413.38;5013958;28;20201;-81
2023/06/10 10:44:10;;;;;;;7.15;6.43;;;;;;;-141.97;39.56;47348.03;5016208;28;20169;-82
2023/06/10 10:46:49;;;;;;;8.50;6.88;;;;;;;-141.97;39.39;47422.97;5014987;28;20237;-80
2023/06/10 10:49:15;;;;;;;10.02;6.65;;;;;;;-141.97;40.43;47405.69;5011702;28;20279;-80
2023/06/10 10:52:00;;;;;;;9.82;6.50;;;;;;;-141.97;39.85;47382.63;5011932;28;20216;-82
2023/06/10 10:54:33;;;;;;;10.13;7.28;;;;;;;-141.97;39.85;47374.94;5011915;28;20222;-81
2023/06/10 10:57:17;;;;;;;8.57;6.40;;;;;;;-141.97;40.93;47376.84;5011941;28;20238;-81
2023/06/10 10:59:49;;;;;;;9.10;6.10;;;;;;;-141.97;41.40;47399.91;5012097;28;20197;-81
2023/06/10 11:02:32;;;;;;;9.85;6.53;;;;;;;-141.97;41.99;47424.91;5012234;28;20218;-80
2023/06/10 11:04:58;;;;;;;8.38;6.35;;;;;;;-141.97;41.23;47380.69;5013114;28;20158;-81
2023/06/10 11:07:25;;;;;;;10.98;6.88;;;;;;;-141.97;41.78;47315.34;4996856;28;20664;-81